Portada
METAR-TAF:

METAR-TAF

Aeroports :

Perry-Foley Airport

Perry, Florida, Estats Units d'Amèrica

latitud: 30-04-19N, longitud: 083-34-25W, altitud: 13 m

Observació

L'informe es va fer fa 17 minuts, a les 05:55 UTC
Vent 3 kt del Nord/Nord-Est
Temperatura 23°C
Humitat 100%
Pressió 1016 hPa
Visibilitat: 16.1 km
Cel clar

METAR: K40J 160555Z AUTO 02003KT 10SM CLR 23/23 A2999 RMK AO2 T02300225 10292 20228

Hora: 02:12 (06:12 UTC)


TAF: manca

Observacions i pronòstics meteorològics de més de 4000 aeroports (METAR i TAF).

Les estacions disponibles són els punts grocs i vermells al mapa.

Posi el ratolí al punt desitjat per veure el nom de l'estació.

Feu clic per veure les observacions i els pronòstics meteorològics.

Per canviar el mapa: feu clic els botons verds amb una creu de color negre per apropar; al botó verd amb un guió per allunyar la imatge; o en les fletxes verdes per a mapes adjacents.


METAR-TAF: